Terminal Aerodrome Forecast
Issued by NWS

Home | Current Version | Previous Version | Text Only | Print | Product List | Glossary On
Versions: 1 2 3 4 5 6 7 8 9 10 11 12 13 14 15 16 17
000
FTUS42 KFFC 292338
TAFFTY
TAF
KFTY 292338Z 3000/3024 12003KT P6SM SCT030 BKN080
     FM300900 09007KT P6SM -SHRA SCT006 OVC025
      TEMPO 3010/3014 5SM -RA BR BKN008
     FM301400 07009KT P6SM -RA OVC015
     FM301600 08008KT P6SM BKN025 BKN120
     FM301900 09010KT P6SM VCSH BKN035 PROB30 3019/3022 5SM -TSRA
      BKN025CB=

USA.gov is the U.S. government's official web portal to all federal, state and local government web resources and services.